New Edinburg, Arkansas
Current Conditions -  °F | °C
As of 12:53 AM on Saturday 20 Dec 2014 (Local Time) from KLLQ Reporting Station
Overcast Overcast  
Wind Chill: 40°   Ceiling: 4700
Heat Index: 43°   Visibility: 10mi
Dew Point: 39°   Wind: 5mph
Humidity: 86%   Direction: 60°ENE
Pressure: 30.2"   Gusts: NA
Location:  33.76°N, 92.24°W
Report Text: KLLQ 200653Z AUTO 06004KT 10SM OVC047 06/04 A3020 RMK AO2 SLP228 T00610039
Loading
Personal Weather Stations






























Interactive Weather Map New forecast layout! Learn more

10-Day Weather Forecast

Advertisements
Track Severe Weather on mobile